Terminal Aerodrome Forecast
Issued by NWS

Home | Current Version | Previous Version | Graphics & Text | Print | Product List | Glossary On
Versions: 1 2 3 4 5 6 7 8 9 10 11 12 13 14
434
FTUS43 KGRB 091133
TAFCWA
TAF
KCWA 091133Z 0912/1012 31011KT 6SM -SN BR SCT020 OVC040
      TEMPO 0912/0915 4SM -SN BR OVC020
     FM091500 32013G21KT P6SM -SN BKN035 OVC070
      TEMPO 0920/0924 5SM -SN BKN025
     FM100000 32010KT P6SM BKN040
      TEMPO 1008/1012 SCT040=

USA.gov is the U.S. government's official web portal to all federal, state and local government web resources and services.